createdAt,value
2018-11-04T00:00:24.852Z,12.60
2018-11-04T00:02:53.505Z,19.40
2018-11-04T00:05:22.004Z,14.63
2018-11-04T00:07:51.120Z,12.93
2018-11-04T00:10:19.627Z,14.53
2018-11-04T00:12:48.220Z,15.47
2018-11-04T00:15:16.730Z,17.67
2018-11-04T00:17:45.279Z,15.03
2018-11-04T00:20:14.712Z,15.07
2018-11-04T00:22:43.200Z,13.43
2018-11-04T00:25:12.959Z,13.93
2018-11-04T00:27:41.521Z,15.63
2018-11-04T00:30:12.012Z,14.80
2018-11-04T00:32:41.084Z,13.77
2018-11-04T00:35:09.611Z,14.37
2018-11-04T00:37:38.469Z,12.83
2018-11-04T00:40:07.364Z,11.20
2018-11-04T00:42:36.035Z,15.50
2018-11-04T00:45:05.385Z,11.23
2018-11-04T00:47:33.838Z,15.43
2018-11-04T00:50:02.338Z,15.07
2018-11-04T00:52:30.851Z,10.53
2018-11-04T00:54:59.333Z,20.47
2018-11-04T00:57:27.841Z,14.43
2018-11-04T00:59:56.348Z,14.53
2018-11-04T01:02:24.833Z,12.60
2018-11-04T01:04:53.328Z,9.67
2018-11-04T01:07:21.808Z,12.27
2018-11-04T01:09:50.320Z,13.60
2018-11-04T01:12:18.803Z,15.73
2018-11-04T01:14:47.295Z,12.70
2018-11-04T01:17:15.801Z,12.23
2018-11-04T01:19:44.320Z,12.47
2018-11-04T01:22:12.827Z,12.73
2018-11-04T01:24:41.335Z,12.17
2018-11-04T01:27:09.826Z,12.57
2018-11-04T01:29:38.348Z,10.50
2018-11-04T01:32:06.903Z,12.10
2018-11-04T01:34:35.425Z,10.87
2018-11-04T01:37:04.244Z,14.67
2018-11-04T01:39:32.716Z,11.83
2018-11-04T01:42:01.220Z,13.85
2018-11-04T01:44:29.750Z,14.97
2018-11-04T01:46:58.247Z,12.33
2018-11-04T01:49:26.767Z,11.13
2018-11-04T01:51:55.271Z,9.97
2018-11-04T01:54:23.780Z,13.17
2018-11-04T01:56:52.280Z,10.47
2018-11-04T01:59:20.773Z,10.33
2018-11-04T02:01:49.268Z,13.80
2018-11-04T02:04:17.765Z,9.97
2018-11-04T02:06:46.262Z,11.43
2018-11-04T02:09:14.763Z,9.00
2018-11-04T02:11:43.278Z,11.03
2018-11-04T02:14:11.768Z,14.03
2018-11-04T02:16:40.262Z,10.73
2018-11-04T02:19:08.748Z,11.60
2018-11-04T02:21:37.263Z,12.10
2018-11-04T02:24:05.806Z,11.83
2018-11-04T02:26:34.317Z,11.30
2018-11-04T02:29:02.802Z,8.67
2018-11-04T02:31:31.302Z,11.03
2018-11-04T02:33:59.804Z,10.37
2018-11-04T02:36:28.286Z,8.97
2018-11-04T02:38:56.807Z,10.90
2018-11-04T02:41:25.271Z,10.43
2018-11-04T02:43:53.770Z,9.80
2018-11-04T02:46:22.277Z,11.07
2018-11-04T02:48:50.771Z,13.93
2018-11-04T02:51:19.264Z,9.33
2018-11-04T02:53:47.804Z,10.07
2018-11-04T02:56:16.299Z,10.10
2018-11-04T02:58:44.837Z,10.10
2018-11-04T03:01:13.342Z,11.30
2018-11-04T03:03:41.841Z,10.60
2018-11-04T03:06:10.383Z,13.00
2018-11-04T03:08:38.890Z,11.40
2018-11-04T03:11:07.391Z,14.20
2018-11-04T03:13:35.872Z,10.23
2018-11-04T03:16:04.505Z,9.93
2018-11-04T03:18:32.994Z,19.00
2018-11-04T03:21:01.504Z,9.40
2018-11-04T03:23:30.012Z,9.63
2018-11-04T03:25:58.512Z,10.43
2018-11-04T03:28:27.036Z,13.57
2018-11-04T03:30:55.539Z,15.57
2018-11-04T03:33:24.056Z,13.37
2018-11-04T03:35:52.560Z,14.93
2018-11-04T03:38:21.060Z,14.80
2018-11-04T03:40:49.547Z,12.33
2018-11-04T03:43:18.035Z,14.60
2018-11-04T03:45:46.540Z,14.07
2018-11-04T03:48:15.077Z,11.17
2018-11-04T03:50:43.575Z,12.47
2018-11-04T03:53:12.090Z,11.80
2018-11-04T03:55:40.583Z,10.47
2018-11-04T03:58:09.068Z,10.83
2018-11-04T04:00:37.566Z,9.47
2018-11-04T04:03:06.041Z,23.23
2018-11-04T04:05:34.550Z,11.23
2018-11-04T04:08:03.784Z,18.63
2018-11-04T04:10:32.269Z,14.67
2018-11-04T04:13:00.753Z,13.10
2018-11-04T04:15:29.265Z,16.23
2018-11-04T04:17:57.749Z,11.13
2018-11-04T04:20:26.235Z,15.00
2018-11-04T04:22:54.743Z,10.83
2018-11-04T04:25:23.264Z,14.47
2018-11-04T04:27:51.758Z,10.73
2018-11-04T04:30:20.249Z,10.03
2018-11-04T04:32:48.734Z,12.77
2018-11-04T04:35:17.301Z,12.30
2018-11-04T04:37:45.809Z,13.33
2018-11-04T04:40:14.336Z,12.60
2018-11-04T04:42:42.854Z,12.33
2018-11-04T04:45:11.352Z,12.97
2018-11-04T04:47:39.855Z,11.00
2018-11-04T04:50:08.336Z,11.00
2018-11-04T04:52:36.870Z,12.57
2018-11-04T04:55:05.402Z,11.67
2018-11-04T04:57:33.870Z,11.57
2018-11-04T05:00:02.428Z,11.97
2018-11-04T05:02:30.936Z,12.33
2018-11-04T05:04:59.429Z,11.60
2018-11-04T05:07:27.902Z,11.13
2018-11-04T05:09:56.409Z,16.87
2018-11-04T05:12:24.909Z,10.40
2018-11-04T05:14:53.464Z,10.20
2018-11-04T05:17:21.982Z,11.95
2018-11-04T05:19:50.490Z,14.47
2018-11-04T05:22:19.012Z,15.47
2018-11-04T05:24:47.499Z,15.40
2018-11-04T05:27:16.005Z,10.03
2018-11-04T05:29:44.478Z,9.50
2018-11-04T05:32:13.052Z,14.33
2018-11-04T05:34:41.500Z,10.90
2018-11-04T05:37:10.017Z,13.45
2018-11-04T05:39:38.548Z,13.07
2018-11-04T05:42:07.047Z,11.67
2018-11-04T05:44:35.559Z,13.00
2018-11-04T05:47:04.377Z,10.98
2018-11-04T05:49:32.901Z,10.83
2018-11-04T05:52:01.400Z,11.68
2018-11-04T05:54:29.898Z,11.70
2018-11-04T05:56:58.384Z,12.70
2018-11-04T05:59:26.932Z,14.37
2018-11-04T06:01:55.420Z,13.00
2018-11-04T06:04:23.929Z,13.80
2018-11-04T06:06:52.413Z,11.03
2018-11-04T06:09:20.903Z,13.20
2018-11-04T06:11:49.431Z,13.50
2018-11-04T06:14:17.899Z,12.13
2018-11-04T06:16:46.405Z,15.57
2018-11-04T06:19:14.919Z,13.27
2018-11-04T06:21:43.412Z,13.07
2018-11-04T06:24:11.905Z,16.30
2018-11-04T06:26:40.403Z,17.90
2018-11-04T06:29:08.960Z,22.70
2018-11-04T06:31:37.437Z,15.13
2018-11-04T06:34:05.940Z,13.40
2018-11-04T06:36:34.420Z,12.13
2018-11-04T06:39:04.731Z,11.57
2018-11-04T06:41:33.226Z,11.77
2018-11-04T06:44:01.768Z,14.17
2018-11-04T06:46:30.320Z,15.93
2018-11-04T06:48:58.967Z,21.70
2018-11-04T06:51:27.563Z,18.77
2018-11-04T06:53:56.071Z,18.93
2018-11-04T06:56:24.554Z,16.77
2018-11-04T06:58:53.072Z,12.17
2018-11-04T07:01:21.629Z,14.07
2018-11-04T07:03:55.629Z,11.70
2018-11-04T07:06:24.144Z,12.97
2018-11-04T07:08:52.712Z,18.77
2018-11-04T07:11:21.152Z,15.57
2018-11-04T07:13:49.668Z,19.93
2018-11-04T07:16:18.176Z,16.27
2018-11-04T07:18:46.733Z,15.30
2018-11-04T07:21:15.230Z,20.80
2018-11-04T07:23:43.728Z,15.27
2018-11-04T07:26:12.300Z,15.77
2018-11-04T07:28:40.797Z,15.30
2018-11-04T07:31:09.322Z,15.90
2018-11-04T07:33:37.833Z,23.97
2018-11-04T07:36:06.407Z,13.93
2018-11-04T07:38:34.967Z,13.10
2018-11-04T07:41:04.209Z,15.03
2018-11-04T07:43:32.737Z,17.63
2018-11-04T07:46:01.275Z,12.67
2018-11-04T07:48:29.804Z,19.63
2018-11-04T07:50:58.322Z,17.07
2018-11-04T07:53:26.876Z,16.90
2018-11-04T07:55:55.412Z,21.40
2018-11-04T07:58:23.939Z,16.33
2018-11-04T08:00:52.472Z,19.03
2018-11-04T08:03:21.012Z,18.60
2018-11-04T08:05:49.458Z,27.33
2018-11-04T08:08:18.001Z,21.00
2018-11-04T08:10:46.526Z,22.23
2018-11-04T08:13:15.015Z,26.47
2018-11-04T08:15:43.527Z,16.10
2018-11-04T08:18:12.101Z,17.70
2018-11-04T08:20:40.599Z,22.93
2018-11-04T08:23:09.091Z,14.37
2018-11-04T08:25:37.636Z,24.67
2018-11-04T08:28:06.594Z,27.57
2018-11-04T08:30:35.035Z,19.73
2018-11-04T08:33:04.151Z,25.23
2018-11-04T08:35:32.775Z,18.83
2018-11-04T08:38:01.752Z,30.00
2018-11-04T08:40:30.452Z,34.30
2018-11-04T08:42:59.044Z,18.97
2018-11-04T08:45:27.588Z,18.80
2018-11-04T08:47:56.100Z,29.67
2018-11-04T08:50:24.603Z,23.03
2018-11-04T08:52:53.136Z,22.03
2018-11-04T08:55:21.647Z,19.02
2018-11-04T08:57:50.185Z,23.50
2018-11-04T09:00:18.701Z,23.43
2018-11-04T09:02:47.247Z,29.90
2018-11-04T09:05:15.739Z,24.13
2018-11-04T09:07:44.260Z,23.30
2018-11-04T09:10:14.199Z,30.30
2018-11-04T09:12:43.397Z,27.57
2018-11-04T09:15:12.277Z,30.87
2018-11-04T09:17:40.992Z,26.70
2018-11-04T09:20:11.520Z,23.83
2018-11-04T09:22:40.658Z,29.90
2018-11-04T09:25:10.648Z,35.83
2018-11-04T09:27:39.157Z,27.47
2018-11-04T09:30:08.659Z,29.70
2018-11-04T09:32:37.326Z,22.37
2018-11-04T09:35:06.364Z,29.07
2018-11-04T09:37:34.818Z,31.47
2018-11-04T09:40:04.501Z,39.20
2018-11-04T09:42:33.044Z,30.83
2018-11-04T09:45:01.571Z,43.40
2018-11-04T09:47:30.072Z,34.93
2018-11-04T09:49:58.649Z,33.13
2018-11-04T09:52:27.124Z,36.07
2018-11-04T09:54:55.705Z,29.33
2018-11-04T09:57:24.198Z,32.57
2018-11-04T09:59:53.458Z,37.77
2018-11-04T10:02:21.980Z,35.50
2018-11-04T10:04:50.497Z,30.03
2018-11-04T10:07:19.166Z,31.13
2018-11-04T10:09:48.381Z,37.87
2018-11-04T10:12:17.010Z,27.70
2018-11-04T10:14:45.540Z,37.63
2018-11-04T10:17:14.131Z,41.43
2018-11-04T10:19:42.747Z,33.70
2018-11-04T10:22:11.293Z,37.00
2018-11-04T10:24:39.814Z,38.40
2018-11-04T10:27:08.331Z,33.80
2018-11-04T10:29:36.894Z,35.43
2018-11-04T10:32:05.423Z,41.03
2018-11-04T10:34:33.962Z,39.17
2018-11-04T10:37:02.503Z,42.83
2018-11-04T10:39:30.992Z,31.47
2018-11-04T10:41:59.549Z,43.10
2018-11-04T10:44:28.080Z,42.40
2018-11-04T10:46:56.648Z,43.27
2018-11-04T10:49:25.186Z,40.53
2018-11-04T10:51:53.687Z,37.60
2018-11-04T10:54:22.169Z,47.67
2018-11-04T10:56:50.691Z,44.70
2018-11-04T10:59:19.195Z,43.50
2018-11-04T11:01:47.709Z,39.77
2018-11-04T11:04:16.232Z,35.60
2018-11-04T11:06:44.807Z,39.77
2018-11-04T11:09:13.400Z,44.37
2018-11-04T11:11:42.339Z,39.60
2018-11-04T11:14:10.927Z,40.97
2018-11-04T11:16:39.449Z,40.00
2018-11-04T11:19:07.978Z,42.87
2018-11-04T11:21:36.486Z,45.33
2018-11-04T11:24:05.768Z,45.10
2018-11-04T11:26:35.254Z,47.23
2018-11-04T11:29:03.769Z,37.33
2018-11-04T11:31:32.316Z,43.83
2018-11-04T11:34:00.849Z,38.97
2018-11-04T11:36:29.379Z,37.90
2018-11-04T11:38:57.884Z,37.57
2018-11-04T11:41:26.440Z,38.93
2018-11-04T11:43:54.964Z,26.93
2018-11-04T11:46:23.489Z,29.07
2018-11-04T11:48:52.205Z,35.23
2018-11-04T11:51:20.693Z,29.40
2018-11-04T11:53:49.256Z,32.90
2018-11-04T11:56:17.757Z,36.03
2018-11-04T11:58:46.300Z,32.80
2018-11-04T12:01:14.863Z,27.83
2018-11-04T12:03:43.397Z,27.73
2018-11-04T12:06:11.908Z,42.10
2018-11-04T12:08:40.430Z,38.67
2018-11-04T12:11:08.942Z,36.47
2018-11-04T12:13:37.459Z,32.00
2018-11-04T12:16:05.977Z,34.90
2018-11-04T12:18:34.518Z,34.43
2018-11-04T12:21:03.086Z,31.30
2018-11-04T12:23:31.633Z,31.83
2018-11-04T12:26:00.104Z,30.72
2018-11-04T12:28:28.668Z,37.40
2018-11-04T12:30:57.193Z,35.23
2018-11-04T12:33:25.726Z,37.20
2018-11-04T12:35:54.249Z,30.57
2018-11-04T12:38:22.839Z,36.60
2018-11-04T12:40:51.328Z,31.33
2018-11-04T12:43:19.882Z,32.70
2018-11-04T12:45:48.556Z,34.43
2018-11-04T12:48:17.005Z,29.27
2018-11-04T12:50:45.563Z,34.73
2018-11-04T12:53:14.060Z,28.57
2018-11-04T12:55:42.576Z,35.50
2018-11-04T12:58:11.136Z,29.63
2018-11-04T13:00:39.725Z,33.93
2018-11-04T13:03:08.296Z,29.17
2018-11-04T13:05:36.848Z,35.87
2018-11-04T13:08:05.394Z,27.73
2018-11-04T13:10:33.915Z,37.73
2018-11-04T13:13:02.431Z,30.63
2018-11-04T13:15:30.944Z,29.57
2018-11-04T13:17:59.485Z,31.30
2018-11-04T13:20:28.001Z,28.60
2018-11-04T13:22:56.507Z,31.37
2018-11-04T13:25:25.034Z,36.73
2018-11-04T13:27:53.521Z,32.47
2018-11-04T13:30:22.200Z,36.57
2018-11-04T13:32:50.732Z,37.80
2018-11-04T13:35:19.249Z,40.67
2018-11-04T13:37:47.783Z,38.70
2018-11-04T13:40:16.361Z,31.73
2018-11-04T13:42:44.889Z,34.53
2018-11-04T13:45:13.431Z,39.93
2018-11-04T13:47:41.942Z,36.37
2018-11-04T13:50:11.704Z,39.90
2018-11-04T13:52:40.227Z,32.37
2018-11-04T13:55:08.777Z,35.17
2018-11-04T13:57:37.647Z,34.40
2018-11-04T14:00:07.467Z,34.33
2018-11-04T14:02:35.982Z,35.33
2018-11-04T14:05:05.188Z,33.40
2018-11-04T14:07:33.688Z,32.50
2018-11-04T14:10:02.188Z,31.63
2018-11-04T14:12:30.729Z,32.50
2018-11-04T14:14:59.245Z,31.33
2018-11-04T14:17:27.839Z,35.87
2018-11-04T14:19:56.360Z,37.20
2018-11-04T14:22:24.911Z,31.43
2018-11-04T14:24:53.381Z,29.07
2018-11-04T14:27:21.901Z,37.95
2018-11-04T14:29:50.407Z,39.67
2018-11-04T14:32:19.028Z,34.83
2018-11-04T14:34:47.548Z,34.93
2018-11-04T14:37:16.086Z,32.00
2018-11-04T14:39:44.601Z,29.93
2018-11-04T14:42:13.130Z,27.83
2018-11-04T14:44:41.658Z,27.87
2018-11-04T14:47:10.189Z,31.35
2018-11-04T14:49:38.703Z,33.30
2018-11-04T14:52:07.239Z,48.90
2018-11-04T14:54:35.722Z,37.33
2018-11-04T14:57:04.365Z,32.35
2018-11-04T14:59:32.909Z,30.57
2018-11-04T15:02:01.529Z,31.97
2018-11-04T15:04:29.983Z,33.92
2018-11-04T15:06:58.478Z,31.17
2018-11-04T15:09:27.003Z,30.37
2018-11-04T15:11:55.551Z,36.90
2018-11-04T15:14:24.114Z,37.27
2018-11-04T15:16:52.638Z,37.03
2018-11-04T15:19:21.202Z,37.07
2018-11-04T15:21:49.734Z,30.20
2018-11-04T15:24:18.367Z,38.70
2018-11-04T15:26:46.883Z,35.60
2018-11-04T15:29:15.399Z,33.30
2018-11-04T15:31:43.912Z,30.53
2018-11-04T15:34:12.663Z,33.50
2018-11-04T15:36:41.091Z,34.80
2018-11-04T15:39:11.148Z,36.60
2018-11-04T15:41:39.736Z,31.17
2018-11-04T15:44:08.888Z,30.13
2018-11-04T15:46:37.565Z,29.47
2018-11-04T15:49:06.523Z,32.73
2018-11-04T15:51:34.956Z,31.60
2018-11-04T15:54:04.275Z,30.20
2018-11-04T15:56:32.892Z,30.33
2018-11-04T15:59:01.394Z,30.80
2018-11-04T16:01:30.668Z,29.80
2018-11-04T16:04:25.945Z,28.40
2018-11-04T16:06:54.498Z,31.67
2018-11-04T16:09:23.021Z,34.97
2018-11-04T16:11:51.523Z,28.97
2018-11-04T16:14:20.032Z,36.87
2018-11-04T16:16:48.525Z,31.90
2018-11-04T16:19:17.028Z,31.63
2018-11-04T16:21:45.536Z,30.03
2018-11-04T16:24:14.067Z,28.93
2018-11-04T16:26:42.622Z,31.97
2018-11-04T16:29:11.146Z,31.60
2018-11-04T16:31:39.631Z,27.50
2018-11-04T16:34:08.137Z,35.40
2018-11-04T16:36:36.628Z,31.80
2018-11-04T16:39:06.057Z,30.07
2018-11-04T16:41:34.827Z,33.53
2018-11-04T16:44:04.262Z,30.00
2018-11-04T16:46:32.594Z,31.37
2018-11-04T16:49:01.097Z,34.57
2018-11-04T16:51:29.570Z,29.00
2018-11-04T16:53:58.092Z,30.37
2018-11-04T16:56:26.591Z,36.20
2018-11-04T16:58:55.075Z,30.53
2018-11-04T17:01:23.566Z,29.13
2018-11-04T17:03:52.106Z,29.80
2018-11-04T17:06:20.580Z,29.17
2018-11-04T17:08:49.070Z,29.63
2018-11-04T17:11:17.582Z,31.43
2018-11-04T17:13:46.123Z,31.80
2018-11-04T17:16:14.658Z,31.77
2018-11-04T17:18:43.138Z,34.23
2018-11-04T17:21:11.701Z,29.87
2018-11-04T17:23:40.311Z,29.57
2018-11-04T17:26:08.782Z,32.60
2018-11-04T17:28:37.687Z,34.90
2018-11-04T17:31:06.200Z,30.43
2018-11-04T17:33:34.743Z,34.50
2018-11-04T17:36:03.699Z,30.17
2018-11-04T17:38:32.196Z,30.67
2018-11-04T17:41:00.665Z,27.03
2018-11-04T17:43:29.173Z,28.87
2018-11-04T17:45:57.667Z,28.80
2018-11-04T17:48:26.177Z,31.50
2018-11-04T17:50:54.677Z,30.97
2018-11-04T17:53:23.213Z,29.93
2018-11-04T17:55:51.696Z,33.83
2018-11-04T17:58:20.214Z,31.33
2018-11-04T18:00:48.714Z,32.00
2018-11-04T18:03:17.209Z,34.17
2018-11-04T18:05:45.704Z,32.10
2018-11-04T18:08:14.226Z,29.63
2018-11-04T18:10:42.799Z,37.87
2018-11-04T18:13:11.322Z,32.67
2018-11-04T18:15:39.824Z,33.43
2018-11-04T18:18:08.367Z,31.03
2018-11-04T18:20:36.866Z,37.00
2018-11-04T18:23:05.372Z,31.63
2018-11-04T18:25:33.875Z,29.13
2018-11-04T18:28:02.343Z,31.07
2018-11-04T18:30:30.847Z,35.20
2018-11-04T18:32:59.392Z,32.33
2018-11-04T18:35:27.906Z,31.33
2018-11-04T18:37:56.387Z,32.83
2018-11-04T18:40:24.924Z,32.65
2018-11-04T18:42:53.399Z,31.50
2018-11-04T18:45:21.896Z,31.05
2018-11-04T18:47:50.384Z,34.60
2018-11-04T18:50:18.899Z,33.17
2018-11-04T18:52:47.502Z,32.67
2018-11-04T18:55:15.898Z,34.87
2018-11-04T18:57:44.778Z,33.60
2018-11-04T19:00:15.836Z,34.07
2018-11-04T19:02:45.019Z,35.10
2018-11-04T19:05:13.560Z,34.20
2018-11-04T19:07:42.123Z,36.50
2018-11-04T19:10:12.637Z,32.87
2018-11-04T19:12:41.249Z,31.77
2018-11-04T19:15:09.903Z,36.33
2018-11-04T19:17:38.422Z,37.10
2018-11-04T19:20:07.695Z,30.97
2018-11-04T19:22:36.510Z,29.37
2018-11-04T19:25:05.519Z,36.48
2018-11-04T19:27:34.019Z,33.43
2018-11-04T19:30:02.481Z,31.03
2018-11-04T19:32:30.971Z,32.53
2018-11-04T19:34:59.443Z,34.67
2018-11-04T19:37:27.979Z,34.63
2018-11-04T19:39:56.442Z,33.70
2018-11-04T19:42:25.031Z,32.43
2018-11-04T19:44:53.483Z,35.07
2018-11-04T19:47:22.056Z,37.80
2018-11-04T19:49:50.548Z,36.60
2018-11-04T19:52:19.076Z,31.37
2018-11-04T19:54:47.614Z,42.00
2018-11-04T19:57:16.116Z,30.40
2018-11-04T19:59:44.714Z,38.57
2018-11-04T20:02:13.276Z,35.13
2018-11-04T20:04:41.868Z,40.07
2018-11-04T20:07:10.357Z,44.53
2018-11-04T20:09:38.863Z,47.80
2018-11-04T20:12:11.683Z,43.37
2018-11-04T20:14:40.256Z,55.40
2018-11-04T20:17:08.768Z,41.37
2018-11-04T20:19:42.742Z,47.03
2018-11-04T20:22:11.260Z,34.13
2018-11-04T20:24:45.345Z,47.53
2018-11-04T20:27:13.836Z,38.60
2018-11-04T20:29:42.328Z,41.03
2018-11-04T20:32:16.440Z,39.23
2018-11-04T20:34:44.957Z,39.17
2018-11-04T20:37:13.500Z,34.97
2018-11-04T20:39:47.628Z,34.40
2018-11-04T20:42:16.127Z,34.17
2018-11-04T20:44:45.193Z,35.97
2018-11-04T20:47:14.055Z,41.00
2018-11-04T20:49:48.103Z,36.37
2018-11-04T20:52:17.166Z,33.07
2018-11-04T20:54:45.869Z,38.60
2018-11-04T20:57:19.930Z,32.77
2018-11-04T20:59:48.389Z,37.00
2018-11-04T21:02:17.038Z,35.37
2018-11-04T21:04:45.408Z,40.17
2018-11-04T21:07:13.883Z,37.97
2018-11-04T21:09:42.468Z,36.90
2018-11-04T21:12:10.903Z,36.27
2018-11-04T21:14:39.384Z,39.90
2018-11-04T21:17:07.897Z,35.80
2018-11-04T21:19:36.390Z,42.80
2018-11-04T21:22:06.349Z,36.63
2018-11-04T21:24:34.840Z,34.37
2018-11-04T21:27:03.374Z,33.60
2018-11-04T21:29:32.213Z,37.40
2018-11-04T21:32:00.414Z,33.37
2018-11-04T21:34:28.907Z,40.50
2018-11-04T21:36:57.417Z,37.07
2018-11-04T21:39:25.989Z,38.07
2018-11-04T21:41:54.464Z,28.63
2018-11-04T21:44:23.232Z,31.43
2018-11-04T21:46:51.539Z,34.43
2018-11-04T21:49:20.090Z,37.03
2018-11-04T21:51:48.562Z,42.57
2018-11-04T21:54:17.094Z,37.10
2018-11-04T21:56:45.608Z,39.73
2018-11-04T21:59:14.103Z,34.50
2018-11-04T22:01:42.657Z,37.47
2018-11-04T22:04:11.243Z,39.70
2018-11-04T22:06:39.680Z,39.90
2018-11-04T22:09:08.706Z,41.70
2018-11-04T22:11:37.254Z,40.37
2018-11-04T22:14:06.000Z,34.83
2018-11-04T22:16:34.278Z,37.23
2018-11-04T22:19:02.775Z,36.60
2018-11-04T22:21:31.300Z,33.60
2018-11-04T22:23:59.802Z,31.70
2018-11-04T22:26:28.296Z,35.63
2018-11-04T22:28:56.783Z,31.37
2018-11-04T22:31:25.348Z,27.57
2018-11-04T22:33:53.862Z,31.03
2018-11-04T22:36:22.379Z,27.53
2018-11-04T22:38:50.845Z,26.87
2018-11-04T22:41:19.370Z,27.93
2018-11-04T22:43:47.888Z,31.47
2018-11-04T22:46:16.377Z,32.10
2018-11-04T22:48:44.884Z,33.07
2018-11-04T22:51:13.410Z,32.13
2018-11-04T22:53:41.914Z,28.43
2018-11-04T22:56:10.569Z,22.73
2018-11-04T22:58:38.938Z,31.80
2018-11-04T23:01:07.444Z,42.20
2018-11-04T23:03:35.944Z,35.27
2018-11-04T23:06:05.741Z,36.70
2018-11-04T23:08:34.410Z,30.60
2018-11-04T23:11:03.705Z,34.30
2018-11-04T23:13:32.628Z,33.17
2018-11-04T23:16:01.112Z,35.20
2018-11-04T23:18:29.651Z,36.37
2018-11-04T23:20:58.149Z,38.23
2018-11-04T23:23:26.642Z,34.87
2018-11-04T23:25:55.187Z,37.67
2018-11-04T23:28:23.701Z,38.63
2018-11-04T23:30:52.173Z,37.27
2018-11-04T23:33:20.701Z,34.87
2018-11-04T23:35:49.228Z,33.23
2018-11-04T23:38:17.737Z,34.13
2018-11-04T23:40:46.243Z,35.10
2018-11-04T23:43:14.752Z,30.87
2018-11-04T23:45:43.243Z,30.57
2018-11-04T23:48:11.750Z,33.40
2018-11-04T23:50:40.284Z,33.37
2018-11-04T23:53:08.810Z,28.93
2018-11-04T23:55:37.334Z,28.03
2018-11-04T23:58:05.821Z,34.27
